• Join FlightAware (Why Join?)
  • Login
  • US Flag 
06:16AM EDT


 

Airport Tracker/Info


-or-


 

Live Flight TrackerFlight Track Log ✈ N779NC ✈ 08-Jul-2013 ✈ KATL - KBNA

Flight Track Log - Related Links

Times and Time Zones

All times are in EDT time to prevent confusion due to time zone crossing. See the N779NC flight status page for this flight to view local times or setup timezone preferences in your user account.

Time Position Orientation Groundspeed Altitude Reporting Facility
EDT Latitude Longitude Course Direction KTS MPH feet Rate Location/Type
05:39PM 33.6500 -84.4667 327° Northwest 175 201 2,400  Level Atlanta TRACON
05:40PM 33.6833 -84.5500 296° West 250 288 4,100 2,100 Climbing Atlanta TRACON
05:41PM 33.7333 -84.6000 320° Northwest 276 318 6,600 2,400 Climbing Atlanta TRACON
05:42PM 34.0322 -84.5212 349° North  Level FlightAware Approximate
05:42PM 33.8167 -84.6167 351° North 288 331 8,900  Level Atlanta TRACON
05:43PM 34.1256 -84.5454 347° North  Level FlightAware Approximate
05:43PM 33.8847 -84.6244 355° North 320 368 10,600  Level Atlanta Center
05:44PM 34.2205 -84.5826 327° Northwest  Level FlightAware Approximate
05:44PM 33.9764 -84.6300 357° North 320 368 12,500  Level Atlanta Center
05:45PM 34.0828 -84.6383 356° North 330 380 14,300 1,800 Climbing Atlanta Center
05:46PM 34.1811 -84.6439 357° North 343 395 16,100 1,740 Climbing Atlanta Center
05:47PM 34.2767 -84.6847 341° North 350 403 17,800 1,680 Climbing Atlanta Center
05:48PM 34.3661 -84.7458 331° Northwest 357 411 19,500 1,680 Climbing Atlanta Center
05:49PM 34.4578 -84.8047 332° Northwest 374 430 21,200 1,440 Climbing Atlanta Center
05:50PM 34.5492 -84.8686 330° Northwest 374 430 22,400 1,080 Climbing Atlanta Center
05:51PM 34.6467 -84.9325 332° Northwest 388 447 23,400 480 Climbing Atlanta Center
05:53PM 34.8447 -85.0739 330° Northwest 412 474 24,000 180 Climbing Memphis Center
05:54PM 34.9481 -85.1508 329° Northwest 429 494 24,000  Level Memphis Center
05:55PM 35.0256 -85.2603 311° West 424 488 24,000  Level Memphis Center
05:56PM 35.1131 -85.3539 319° Northwest 424 488 24,000  Level Memphis Center
05:57PM 35.2028 -85.4628 315° West 419 482 24,000 -300 Level Memphis Center
05:58PM 35.2758 -85.5706 310° West 419 482 23,400 -1,380 Descending Memphis Center
05:59PM 35.3483 -85.6681 312° West 405 466 21,300 -2,520 Descending Memphis Center
06:00PM 35.4189 -85.7661 311° West 393 452 18,400 -2,820 Descending Memphis Center
06:01PM 35.4872 -85.8719 308° West 393 452 15,700 -2,700 Descending Memphis Center
06:02PM 35.5658 -85.9647 316° Northwest 393 452 13,000 -2,100 Descending Memphis Center
06:03PM 35.6478 -86.0472 321° Northwest 393 452 11,500 -1,020 Descending Memphis Center
06:04PM 35.7047 -86.1286 311° West 367 422 11,000 -780 Descending Memphis Center
06:05PM 35.7722 -86.2069 317° Northwest 342 394 10,000 -1,200 Descending Memphis Center
06:06PM 35.8206 -86.2814 309° West 306 352 8,700 -1,620 Descending Memphis Center
06:07PM 35.8567 -86.3692 297° West 285 328 6,800 -1,740 Descending Memphis Center
06:08PM 35.8928 -86.4519 298° West 279 321 5,300 -1,620 Descending Memphis Center
06:09PM 35.9264 -86.5300 298° West 263 303 3,600 -1,260 Descending Memphis Center
06:10PM 35.9603 -86.6103 298° West 252 290 2,800 -840 Descending Memphis Center